Terminal Aerodrome Forecast
Issued by NWS Lake Charles, LA

Home | Current Version | Previous Version | Text Only | Print | Product List | Glossary On
Versions: 1 2 3 4 5 6 7 8 9 10 11 12 13 14
000
FTUS44 KLCH 021700 RRA
TAFAEX
TAF
KAEX 021758Z 0218/0318 01005KT P6SM VCSH VV004
      TEMPO 0220/0224 5SM -RA BR SCT004 OVC012
     FM030000 02007KT P6SM -RA OVC006
      TEMPO 0300/0304 1SM BR VV012
     FM030400 07003KT 2SM BR OVC002
     FM031000 12004KT 3SM BR OVC002=

USA.gov is the U.S. government's official web portal to all federal, state and local government web resources and services.